sensor_id;sensor_type;location;lat;lon;timestamp;P1;durP1;ratioP1;P2;durP2;ratioP2
43042;SDS011;28667;50.758;6.096;2023-05-10T00:02:08;18.92;;;8.93;;
43042;SDS011;28667;50.758;6.096;2023-05-10T00:04:34;17.98;;;8.25;;
43042;SDS011;28667;50.758;6.096;2023-05-10T00:07:00;15.98;;;7.72;;
43042;SDS011;28667;50.758;6.096;2023-05-10T00:09:26;18.88;;;8.35;;
43042;SDS011;28667;50.758;6.096;2023-05-10T00:11:52;20.92;;;8.95;;
43042;SDS011;28667;50.758;6.096;2023-05-10T00:14:18;16.65;;;8.07;;
43042;SDS011;28667;50.758;6.096;2023-05-10T00:16:44;12.55;;;7.32;;
43042;SDS011;28667;50.758;6.096;2023-05-10T00:19:10;15.77;;;7.50;;
43042;SDS011;28667;50.758;6.096;2023-05-10T00:21:36;16.02;;;7.55;;
43042;SDS011;28667;50.758;6.096;2023-05-10T00:24:01;19.42;;;9.32;;
43042;SDS011;28667;50.758;6.096;2023-05-10T00:26:27;15.93;;;8.07;;
43042;SDS011;28667;50.758;6.096;2023-05-10T00:28:55;20.55;;;7.97;;
43042;SDS011;28667;50.758;6.096;2023-05-10T00:31:22;17.67;;;7.65;;
43042;SDS011;28667;50.758;6.096;2023-05-10T00:33:47;16.60;;;9.07;;
43042;SDS011;28667;50.758;6.096;2023-05-10T00:36:13;15.65;;;6.90;;
43042;SDS011;28667;50.758;6.096;2023-05-10T00:38:40;10.75;;;6.05;;
43042;SDS011;28667;50.758;6.096;2023-05-10T00:41:05;14.15;;;7.97;;
43042;SDS011;28667;50.758;6.096;2023-05-10T00:43:33;9.63;;;5.78;;
43042;SDS011;28667;50.758;6.096;2023-05-10T00:45:59;11.25;;;5.90;;
43042;SDS011;28667;50.758;6.096;2023-05-10T00:48:25;9.20;;;5.65;;
43042;SDS011;28667;50.758;6.096;2023-05-10T00:50:51;9.18;;;5.40;;
43042;SDS011;28667;50.758;6.096;2023-05-10T00:53:17;7.13;;;4.60;;
43042;SDS011;28667;50.758;6.096;2023-05-10T00:55:43;6.60;;;4.28;;
43042;SDS011;28667;50.758;6.096;2023-05-10T00:58:09;8.57;;;4.57;;
43042;SDS011;28667;50.758;6.096;2023-05-10T01:00:35;6.82;;;4.50;;
43042;SDS011;28667;50.758;6.096;2023-05-10T01:03:03;5.13;;;3.65;;
43042;SDS011;28667;50.758;6.096;2023-05-10T01:05:29;6.88;;;4.65;;
43042;SDS011;28667;50.758;6.096;2023-05-10T01:07:56;9.43;;;4.38;;
43042;SDS011;28667;50.758;6.096;2023-05-10T01:10:22;6.75;;;3.70;;
43042;SDS011;28667;50.758;6.096;2023-05-10T01:12:48;6.20;;;3.97;;
43042;SDS011;28667;50.758;6.096;2023-05-10T01:15:14;7.07;;;4.28;;
43042;SDS011;28667;50.758;6.096;2023-05-10T01:17:44;5.55;;;4.15;;
43042;SDS011;28667;50.758;6.096;2023-05-10T01:20:12;5.80;;;3.58;;
43042;SDS011;28667;50.758;6.096;2023-05-10T01:34:16;4.93;;;3.55;;
43042;SDS011;28667;50.758;6.096;2023-05-10T01:36:54;6.90;;;3.85;;
43042;SDS011;28667;50.758;6.096;2023-05-10T01:42:10;6.72;;;3.53;;
43042;SDS011;28667;50.758;6.096;2023-05-10T01:48:03;6.32;;;4.53;;
43042;SDS011;28667;50.758;6.096;2023-05-10T01:50:35;6.00;;;3.67;;
43042;SDS011;28667;50.758;6.096;2023-05-10T01:53:05;6.15;;;3.60;;
43042;SDS011;28667;50.758;6.096;2023-05-10T01:55:34;6.80;;;4.38;;
43042;SDS011;28667;50.758;6.096;2023-05-10T01:58:06;5.78;;;3.92;;
43042;SDS011;28667;50.758;6.096;2023-05-10T02:00:34;3.88;;;3.33;;
43042;SDS011;28667;50.758;6.096;2023-05-10T02:03:03;6.22;;;4.13;;
43042;SDS011;28667;50.758;6.096;2023-05-10T02:05:31;5.55;;;3.40;;
43042;SDS011;28667;50.758;6.096;2023-05-10T02:07:59;4.43;;;3.00;;
43042;SDS011;28667;50.758;6.096;2023-05-10T02:10:27;3.85;;;3.45;;
43042;SDS011;28667;50.758;6.096;2023-05-10T02:12:53;4.38;;;3.03;;
43042;SDS011;28667;50.758;6.096;2023-05-10T02:15:23;5.00;;;3.75;;
43042;SDS011;28667;50.758;6.096;2023-05-10T02:17:51;6.32;;;3.80;;
43042;SDS011;28667;50.758;6.096;2023-05-10T02:20:20;6.85;;;4.13;;
43042;SDS011;28667;50.758;6.096;2023-05-10T02:22:48;6.43;;;4.13;;
43042;SDS011;28667;50.758;6.096;2023-05-10T02:25:15;4.32;;;3.47;;
43042;SDS011;28667;50.758;6.096;2023-05-10T02:27:44;10.32;;;4.78;;
43042;SDS011;28667;50.758;6.096;2023-05-10T02:30:11;9.05;;;5.50;;
43042;SDS011;28667;50.758;6.096;2023-05-10T02:32:38;10.02;;;5.40;;
43042;SDS011;28667;50.758;6.096;2023-05-10T02:35:05;7.60;;;5.45;;
43042;SDS011;28667;50.758;6.096;2023-05-10T02:37:32;10.60;;;6.50;;
43042;SDS011;28667;50.758;6.096;2023-05-10T02:39:59;13.93;;;6.28;;
43042;SDS011;28667;50.758;6.096;2023-05-10T02:42:29;11.18;;;6.38;;
43042;SDS011;28667;50.758;6.096;2023-05-10T02:44:59;17.02;;;8.73;;
43042;SDS011;28667;50.758;6.096;2023-05-10T02:47:28;16.50;;;7.15;;
43042;SDS011;28667;50.758;6.096;2023-05-10T02:49:54;13.60;;;6.55;;
43042;SDS011;28667;50.758;6.096;2023-05-10T02:52:25;14.27;;;7.10;;
43042;SDS011;28667;50.758;6.096;2023-05-10T02:54:54;13.93;;;7.07;;
43042;SDS011;28667;50.758;6.096;2023-05-10T02:57:26;12.82;;;7.45;;
43042;SDS011;28667;50.758;6.096;2023-05-10T02:59:55;15.05;;;7.45;;
43042;SDS011;28667;50.758;6.096;2023-05-10T03:02:21;13.32;;;7.13;;
43042;SDS011;28667;50.758;6.096;2023-05-10T03:04:48;15.32;;;7.22;;
43042;SDS011;28667;50.758;6.096;2023-05-10T03:07:13;16.67;;;7.75;;
43042;SDS011;28667;50.758;6.096;2023-05-10T03:09:40;12.93;;;6.97;;
43042;SDS011;28667;50.758;6.096;2023-05-10T03:15:00;12.23;;;6.03;;
43042;SDS011;28667;50.758;6.096;2023-05-10T03:20:40;12.98;;;5.63;;
43042;SDS011;28667;50.758;6.096;2023-05-10T03:23:30;16.80;;;7.07;;
43042;SDS011;28667;50.758;6.096;2023-05-10T03:26:22;9.45;;;5.40;;
43042;SDS011;28667;50.758;6.096;2023-05-10T03:28:56;16.17;;;6.15;;
43042;SDS011;28667;50.758;6.096;2023-05-10T03:31:24;13.98;;;6.43;;
43042;SDS011;28667;50.758;6.096;2023-05-10T03:33:50;12.52;;;6.10;;
43042;SDS011;28667;50.758;6.096;2023-05-10T03:36:22;9.43;;;5.70;;
43042;SDS011;28667;50.758;6.096;2023-05-10T03:38:47;11.40;;;6.38;;
43042;SDS011;28667;50.758;6.096;2023-05-10T03:41:13;11.60;;;6.53;;
43042;SDS011;28667;50.758;6.096;2023-05-10T03:43:39;9.50;;;5.95;;
43042;SDS011;28667;50.758;6.096;2023-05-10T03:46:05;10.77;;;6.38;;
43042;SDS011;28667;50.758;6.096;2023-05-10T03:48:32;13.20;;;6.68;;
43042;SDS011;28667;50.758;6.096;2023-05-10T03:50:58;13.50;;;6.35;;
43042;SDS011;28667;50.758;6.096;2023-05-10T03:53:24;18.63;;;6.97;;
43042;SDS011;28667;50.758;6.096;2023-05-10T03:55:50;10.90;;;7.07;;
43042;SDS011;28667;50.758;6.096;2023-05-10T03:58:16;10.50;;;5.70;;
43042;SDS011;28667;50.758;6.096;2023-05-10T04:00:42;10.93;;;6.30;;
43042;SDS011;28667;50.758;6.096;2023-05-10T04:03:11;9.15;;;5.82;;
43042;SDS011;28667;50.758;6.096;2023-05-10T04:05:37;9.30;;;5.75;;
43042;SDS011;28667;50.758;6.096;2023-05-10T04:08:03;10.25;;;6.13;;
43042;SDS011;28667;50.758;6.096;2023-05-10T04:10:29;9.82;;;5.18;;
43042;SDS011;28667;50.758;6.096;2023-05-10T04:12:55;15.25;;;5.13;;
43042;SDS011;28667;50.758;6.096;2023-05-10T04:15:21;10.63;;;5.28;;
43042;SDS011;28667;50.758;6.096;2023-05-10T04:17:47;10.77;;;5.50;;
43042;SDS011;28667;50.758;6.096;2023-05-10T04:20:13;9.13;;;4.78;;
43042;SDS011;28667;50.758;6.096;2023-05-10T04:22:39;15.57;;;5.85;;
43042;SDS011;28667;50.758;6.096;2023-05-10T04:25:06;7.85;;;4.20;;
43042;SDS011;28667;50.758;6.096;2023-05-10T04:27:32;8.15;;;4.78;;
43042;SDS011;28667;50.758;6.096;2023-05-10T04:29:58;13.30;;;5.90;;
43042;SDS011;28667;50.758;6.096;2023-05-10T04:32:23;6.18;;;4.65;;
43042;SDS011;28667;50.758;6.096;2023-05-10T04:34:49;10.25;;;5.10;;
43042;SDS011;28667;50.758;6.096;2023-05-10T04:37:16;7.97;;;3.95;;
43042;SDS011;28667;50.758;6.096;2023-05-10T04:39:42;10.50;;;5.38;;
43042;SDS011;28667;50.758;6.096;2023-05-10T04:42:08;9.00;;;4.90;;
43042;SDS011;28667;50.758;6.096;2023-05-10T04:44:34;11.55;;;5.55;;
43042;SDS011;28667;50.758;6.096;2023-05-10T04:47:00;8.82;;;4.97;;
43042;SDS011;28667;50.758;6.096;2023-05-10T04:49:27;9.45;;;5.13;;
43042;SDS011;28667;50.758;6.096;2023-05-10T04:51:53;5.80;;;4.00;;
43042;SDS011;28667;50.758;6.096;2023-05-10T04:54:19;9.80;;;4.90;;
43042;SDS011;28667;50.758;6.096;2023-05-10T04:56:45;13.32;;;5.38;;
43042;SDS011;28667;50.758;6.096;2023-05-10T04:59:10;9.57;;;4.32;;
43042;SDS011;28667;50.758;6.096;2023-05-10T05:01:36;9.90;;;4.78;;
43042;SDS011;28667;50.758;6.096;2023-05-10T05:04:02;8.57;;;4.22;;
43042;SDS011;28667;50.758;6.096;2023-05-10T05:06:28;10.23;;;5.25;;
43042;SDS011;28667;50.758;6.096;2023-05-10T05:08:54;18.90;;;5.22;;
43042;SDS011;28667;50.758;6.096;2023-05-10T05:11:19;11.60;;;5.47;;
43042;SDS011;28667;50.758;6.096;2023-05-10T05:13:46;14.90;;;5.95;;
43042;SDS011;28667;50.758;6.096;2023-05-10T05:16:11;10.00;;;4.93;;
43042;SDS011;28667;50.758;6.096;2023-05-10T05:18:37;11.35;;;5.53;;
43042;SDS011;28667;50.758;6.096;2023-05-10T05:21:12;8.52;;;5.03;;
43042;SDS011;28667;50.758;6.096;2023-05-10T05:23:42;10.10;;;4.28;;
43042;SDS011;28667;50.758;6.096;2023-05-10T05:26:08;9.07;;;4.10;;
43042;SDS011;28667;50.758;6.096;2023-05-10T05:28:34;8.95;;;3.55;;
43042;SDS011;28667;50.758;6.096;2023-05-10T05:31:06;15.23;;;5.03;;
43042;SDS011;28667;50.758;6.096;2023-05-10T05:33:35;9.60;;;4.50;;
43042;SDS011;28667;50.758;6.096;2023-05-10T05:36:01;5.43;;;2.97;;
43042;SDS011;28667;50.758;6.096;2023-05-10T05:38:28;8.40;;;3.55;;
43042;SDS011;28667;50.758;6.096;2023-05-10T05:40:54;4.75;;;3.25;;
43042;SDS011;28667;50.758;6.096;2023-05-10T05:43:20;5.20;;;3.42;;
43042;SDS011;28667;50.758;6.096;2023-05-10T05:45:45;9.82;;;3.50;;
43042;SDS011;28667;50.758;6.096;2023-05-10T05:48:11;4.93;;;2.72;;
43042;SDS011;28667;50.758;6.096;2023-05-10T05:50:37;5.00;;;2.78;;
43042;SDS011;28667;50.758;6.096;2023-05-10T05:53:02;8.07;;;3.00;;
43042;SDS011;28667;50.758;6.096;2023-05-10T05:55:28;8.82;;;2.95;;
43042;SDS011;28667;50.758;6.096;2023-05-10T05:57:56;4.05;;;2.58;;
43042;SDS011;28667;50.758;6.096;2023-05-10T06:00:22;4.55;;;2.10;;
43042;SDS011;28667;50.758;6.096;2023-05-10T06:02:48;3.40;;;2.05;;
43042;SDS011;28667;50.758;6.096;2023-05-10T06:05:14;3.83;;;2.30;;
43042;SDS011;28667;50.758;6.096;2023-05-10T06:07:40;6.20;;;2.25;;
43042;SDS011;28667;50.758;6.096;2023-05-10T06:10:08;2.63;;;1.38;;
43042;SDS011;28667;50.758;6.096;2023-05-10T06:12:35;3.90;;;1.85;;
43042;SDS011;28667;50.758;6.096;2023-05-10T06:15:01;4.05;;;1.52;;
43042;SDS011;28667;50.758;6.096;2023-05-10T06:17:27;2.83;;;1.88;;
43042;SDS011;28667;50.758;6.096;2023-05-10T06:19:53;2.00;;;1.67;;
43042;SDS011;28667;50.758;6.096;2023-05-10T06:22:19;2.88;;;1.80;;
43042;SDS011;28667;50.758;6.096;2023-05-10T06:24:47;1.50;;;1.40;;
43042;SDS011;28667;50.758;6.096;2023-05-10T06:27:13;2.88;;;1.33;;
43042;SDS011;28667;50.758;6.096;2023-05-10T06:29:39;2.13;;;1.42;;
43042;SDS011;28667;50.758;6.096;2023-05-10T06:32:05;1.40;;;1.05;;
43042;SDS011;28667;50.758;6.096;2023-05-10T06:34:31;0.80;;;0.75;;
43042;SDS011;28667;50.758;6.096;2023-05-10T06:36:57;0.50;;;0.43;;
43042;SDS011;28667;50.758;6.096;2023-05-10T06:39:23;0.63;;;0.28;;
43042;SDS011;28667;50.758;6.096;2023-05-10T06:41:48;0.20;;;0.20;;
43042;SDS011;28667;50.758;6.096;2023-05-10T06:44:14;0.38;;;0.20;;
43042;SDS011;28667;50.758;6.096;2023-05-10T06:46:40;0.20;;;0.10;;
43042;SDS011;28667;50.758;6.096;2023-05-10T06:49:06;0.20;;;0.20;;
43042;SDS011;28667;50.758;6.096;2023-05-10T06:51:32;1.73;;;0.40;;
43042;SDS011;28667;50.758;6.096;2023-05-10T06:53:58;0.10;;;0.10;;
43042;SDS011;28667;50.758;6.096;2023-05-10T06:56:24;0.00;;;0.00;;
43042;SDS011;28667;50.758;6.096;2023-05-10T06:58:50;0.10;;;0.10;;
43042;SDS011;28667;50.758;6.096;2023-05-10T07:01:15;0.10;;;0.10;;
43042;SDS011;28667;50.758;6.096;2023-05-10T07:03:41;0.20;;;0.10;;
43042;SDS011;28667;50.758;6.096;2023-05-10T07:06:07;0.15;;;0.10;;
43042;SDS011;28667;50.758;6.096;2023-05-10T07:08:33;0.10;;;0.10;;
43042;SDS011;28667;50.758;6.096;2023-05-10T07:11:02;0.20;;;0.20;;
43042;SDS011;28667;50.758;6.096;2023-05-10T07:13:30;0.28;;;0.10;;
43042;SDS011;28667;50.758;6.096;2023-05-10T07:15:56;0.10;;;0.08;;
43042;SDS011;28667;50.758;6.096;2023-05-10T07:18:23;0.35;;;0.20;;
43042;SDS011;28667;50.758;6.096;2023-05-10T07:20:49;0.05;;;0.00;;
43042;SDS011;28667;50.758;6.096;2023-05-10T07:23:15;0.22;;;0.10;;
43042;SDS011;28667;50.758;6.096;2023-05-10T07:25:44;0.10;;;0.10;;
43042;SDS011;28667;50.758;6.096;2023-05-10T07:28:11;0.20;;;0.20;;
43042;SDS011;28667;50.758;6.096;2023-05-10T07:30:37;0.43;;;0.10;;
43042;SDS011;28667;50.758;6.096;2023-05-10T07:33:03;0.10;;;0.10;;
43042;SDS011;28667;50.758;6.096;2023-05-10T07:35:28;1.20;;;0.45;;
43042;SDS011;28667;50.758;6.096;2023-05-10T07:37:54;1.67;;;0.40;;
43042;SDS011;28667;50.758;6.096;2023-05-10T07:40:20;1.48;;;0.47;;
43042;SDS011;28667;50.758;6.096;2023-05-10T07:42:46;0.35;;;0.30;;
43042;SDS011;28667;50.758;6.096;2023-05-10T07:45:12;2.15;;;0.75;;
43042;SDS011;28667;50.758;6.096;2023-05-10T07:47:37;1.40;;;0.77;;
43042;SDS011;28667;50.758;6.096;2023-05-10T07:50:03;1.13;;;0.63;;
43042;SDS011;28667;50.758;6.096;2023-05-10T07:52:29;1.10;;;0.73;;
43042;SDS011;28667;50.758;6.096;2023-05-10T07:54:55;1.33;;;1.10;;
43042;SDS011;28667;50.758;6.096;2023-05-10T07:57:21;1.63;;;1.20;;
43042;SDS011;28667;50.758;6.096;2023-05-10T07:59:47;2.35;;;0.98;;
43042;SDS011;28667;50.758;6.096;2023-05-10T08:02:13;3.10;;;1.35;;
43042;SDS011;28667;50.758;6.096;2023-05-10T08:04:39;2.15;;;1.70;;
43042;SDS011;28667;50.758;6.096;2023-05-10T08:07:05;3.45;;;1.13;;
43042;SDS011;28667;50.758;6.096;2023-05-10T08:09:31;2.00;;;1.30;;
43042;SDS011;28667;50.758;6.096;2023-05-10T08:11:56;2.13;;;0.85;;
43042;SDS011;28667;50.758;6.096;2023-05-10T08:14:24;1.60;;;0.80;;
43042;SDS011;28667;50.758;6.096;2023-05-10T08:16:50;0.75;;;0.47;;
43042;SDS011;28667;50.758;6.096;2023-05-10T08:19:15;1.13;;;0.50;;
43042;SDS011;28667;50.758;6.096;2023-05-10T08:21:44;0.60;;;0.50;;
43042;SDS011;28667;50.758;6.096;2023-05-10T08:24:10;0.90;;;0.60;;
43042;SDS011;28667;50.758;6.096;2023-05-10T08:26:36;1.92;;;0.60;;
43042;SDS011;28667;50.758;6.096;2023-05-10T08:29:02;0.75;;;0.73;;
43042;SDS011;28667;50.758;6.096;2023-05-10T08:31:28;1.13;;;0.82;;
43042;SDS011;28667;50.758;6.096;2023-05-10T08:33:53;1.48;;;0.60;;
43042;SDS011;28667;50.758;6.096;2023-05-10T08:36:19;0.65;;;0.50;;
43042;SDS011;28667;50.758;6.096;2023-05-10T08:38:50;0.68;;;0.63;;
43042;SDS011;28667;50.758;6.096;2023-05-10T08:41:18;0.60;;;0.52;;
43042;SDS011;28667;50.758;6.096;2023-05-10T08:43:49;0.68;;;0.52;;
43042;SDS011;28667;50.758;6.096;2023-05-10T08:46:16;0.85;;;0.63;;
43042;SDS011;28667;50.758;6.096;2023-05-10T08:48:47;0.90;;;0.40;;
43042;SDS011;28667;50.758;6.096;2023-05-10T08:51:14;0.50;;;0.50;;
43042;SDS011;28667;50.758;6.096;2023-05-10T08:53:44;0.65;;;0.63;;
43042;SDS011;28667;50.758;6.096;2023-05-10T08:56:11;1.10;;;0.40;;
43042;SDS011;28667;50.758;6.096;2023-05-10T08:58:38;0.40;;;0.40;;
43042;SDS011;28667;50.758;6.096;2023-05-10T09:01:07;0.80;;;0.70;;
43042;SDS011;28667;50.758;6.096;2023-05-10T09:03:33;0.40;;;0.40;;
43042;SDS011;28667;50.758;6.096;2023-05-10T09:06:00;0.57;;;0.57;;
43042;SDS011;28667;50.758;6.096;2023-05-10T09:08:26;0.75;;;0.60;;
43042;SDS011;28667;50.758;6.096;2023-05-10T09:10:52;0.80;;;0.65;;
43042;SDS011;28667;50.758;6.096;2023-05-10T09:13:18;0.40;;;0.40;;
43042;SDS011;28667;50.758;6.096;2023-05-10T09:15:45;0.82;;;0.82;;
43042;SDS011;28667;50.758;6.096;2023-05-10T09:18:12;0.50;;;0.50;;
43042;SDS011;28667;50.758;6.096;2023-05-10T09:20:38;1.35;;;0.68;;
43042;SDS011;28667;50.758;6.096;2023-05-10T09:23:03;0.70;;;0.60;;
43042;SDS011;28667;50.758;6.096;2023-05-10T09:25:30;0.38;;;0.30;;
43042;SDS011;28667;50.758;6.096;2023-05-10T09:27:58;0.77;;;0.55;;
43042;SDS011;28667;50.758;6.096;2023-05-10T09:30:30;0.65;;;0.40;;
43042;SDS011;28667;50.758;6.096;2023-05-10T09:32:57;0.47;;;0.47;;
43042;SDS011;28667;50.758;6.096;2023-05-10T09:35:24;0.45;;;0.38;;
43042;SDS011;28667;50.758;6.096;2023-05-10T09:37:53;0.40;;;0.40;;
43042;SDS011;28667;50.758;6.096;2023-05-10T09:40:20;0.30;;;0.30;;
43042;SDS011;28667;50.758;6.096;2023-05-10T09:42:54;0.30;;;0.30;;
43042;SDS011;28667;50.758;6.096;2023-05-10T09:45:23;0.70;;;0.47;;
43042;SDS011;28667;50.758;6.096;2023-05-10T09:47:51;0.40;;;0.40;;
43042;SDS011;28667;50.758;6.096;2023-05-10T09:50:17;0.50;;;0.50;;
43042;SDS011;28667;50.758;6.096;2023-05-10T09:52:47;0.55;;;0.50;;
43042;SDS011;28667;50.758;6.096;2023-05-10T09:55:17;1.15;;;0.40;;
43042;SDS011;28667;50.758;6.096;2023-05-10T09:57:45;1.13;;;0.80;;
43042;SDS011;28667;50.758;6.096;2023-05-10T10:00:16;1.10;;;0.60;;
43042;SDS011;28667;50.758;6.096;2023-05-10T10:02:45;1.30;;;0.60;;
43042;SDS011;28667;50.758;6.096;2023-05-10T10:05:13;1.02;;;0.75;;
43042;SDS011;28667;50.758;6.096;2023-05-10T10:07:39;0.65;;;0.45;;
43042;SDS011;28667;50.758;6.096;2023-05-10T10:10:06;0.77;;;0.77;;
43042;SDS011;28667;50.758;6.096;2023-05-10T10:12:36;0.80;;;0.80;;
43042;SDS011;28667;50.758;6.096;2023-05-10T10:15:02;1.40;;;1.27;;
43042;SDS011;28667;50.758;6.096;2023-05-10T10:17:29;0.90;;;0.90;;
43042;SDS011;28667;50.758;6.096;2023-05-10T10:19:56;0.90;;;0.90;;
43042;SDS011;28667;50.758;6.096;2023-05-10T10:22:23;1.73;;;0.60;;
43042;SDS011;28667;50.758;6.096;2023-05-10T10:24:49;0.80;;;0.70;;
43042;SDS011;28667;50.758;6.096;2023-05-10T10:27:28;0.70;;;0.50;;
43042;SDS011;28667;50.758;6.096;2023-05-10T10:30:25;0.80;;;0.80;;
43042;SDS011;28667;50.758;6.096;2023-05-10T10:35:31;1.13;;;0.70;;
43042;SDS011;28667;50.758;6.096;2023-05-10T10:37:58;0.93;;;0.70;;
43042;SDS011;28667;50.758;6.096;2023-05-10T10:40:30;1.67;;;0.88;;
43042;SDS011;28667;50.758;6.096;2023-05-10T10:42:57;2.78;;;1.25;;
43042;SDS011;28667;50.758;6.096;2023-05-10T10:45:43;0.60;;;0.55;;
43042;SDS011;28667;50.758;6.096;2023-05-10T10:48:22;0.90;;;0.68;;
43042;SDS011;28667;50.758;6.096;2023-05-10T10:50:55;3.33;;;0.70;;
43042;SDS011;28667;50.758;6.096;2023-05-10T10:53:23;0.60;;;0.60;;
43042;SDS011;28667;50.758;6.096;2023-05-10T10:55:55;0.77;;;0.63;;
43042;SDS011;28667;50.758;6.096;2023-05-10T10:58:31;1.38;;;0.60;;
43042;SDS011;28667;50.758;6.096;2023-05-10T11:03:40;0.52;;;0.52;;
43042;SDS011;28667;50.758;6.096;2023-05-10T11:06:28;0.88;;;0.60;;
43042;SDS011;28667;50.758;6.096;2023-05-10T11:08:56;1.83;;;1.13;;
43042;SDS011;28667;50.758;6.096;2023-05-10T11:11:22;0.50;;;0.50;;
43042;SDS011;28667;50.758;6.096;2023-05-10T11:13:48;1.42;;;0.70;;
43042;SDS011;28667;50.758;6.096;2023-05-10T11:16:18;0.65;;;0.55;;
43042;SDS011;28667;50.758;6.096;2023-05-10T11:18:58;1.67;;;1.13;;
43042;SDS011;28667;50.758;6.096;2023-05-10T11:21:25;0.70;;;0.70;;
43042;SDS011;28667;50.758;6.096;2023-05-10T11:23:52;0.80;;;0.80;;
43042;SDS011;28667;50.758;6.096;2023-05-10T11:26:24;0.50;;;0.50;;
43042;SDS011;28667;50.758;6.096;2023-05-10T11:28:55;3.92;;;0.77;;
43042;SDS011;28667;50.758;6.096;2023-05-10T11:31:21;1.63;;;0.70;;
43042;SDS011;28667;50.758;6.096;2023-05-10T11:33:51;1.17;;;1.05;;
43042;SDS011;28667;50.758;6.096;2023-05-10T11:36:23;2.97;;;1.33;;
43042;SDS011;28667;50.758;6.096;2023-05-10T11:38:51;1.15;;;1.00;;
43042;SDS011;28667;50.758;6.096;2023-05-10T11:41:18;2.50;;;0.75;;
43042;SDS011;28667;50.758;6.096;2023-05-10T11:43:47;1.83;;;1.00;;
43042;SDS011;28667;50.758;6.096;2023-05-10T11:46:17;1.30;;;1.20;;
43042;SDS011;28667;50.758;6.096;2023-05-10T11:48:45;1.83;;;1.30;;
43042;SDS011;28667;50.758;6.096;2023-05-10T11:51:14;0.80;;;0.80;;
43042;SDS011;28667;50.758;6.096;2023-05-10T11:53:41;2.92;;;1.30;;
43042;SDS011;28667;50.758;6.096;2023-05-10T11:56:07;3.80;;;1.20;;
43042;SDS011;28667;50.758;6.096;2023-05-10T11:58:34;1.73;;;1.58;;
43042;SDS011;28667;50.758;6.096;2023-05-10T12:01:01;1.50;;;1.40;;
43042;SDS011;28667;50.758;6.096;2023-05-10T12:03:28;1.30;;;1.20;;
43042;SDS011;28667;50.758;6.096;2023-05-10T12:05:54;4.55;;;0.88;;
43042;SDS011;28667;50.758;6.096;2023-05-10T12:08:23;3.85;;;0.98;;
43042;SDS011;28667;50.758;6.096;2023-05-10T12:10:53;2.05;;;1.42;;
43042;SDS011;28667;50.758;6.096;2023-05-10T12:13:28;1.50;;;1.20;;
43042;SDS011;28667;50.758;6.096;2023-05-10T12:15:56;2.20;;;1.77;;
43042;SDS011;28667;50.758;6.096;2023-05-10T12:18:23;1.50;;;1.10;;
43042;SDS011;28667;50.758;6.096;2023-05-10T12:20:53;1.90;;;1.30;;
43042;SDS011;28667;50.758;6.096;2023-05-10T12:23:19;1.88;;;1.20;;
43042;SDS011;28667;50.758;6.096;2023-05-10T12:25:45;2.92;;;1.42;;
43042;SDS011;28667;50.758;6.096;2023-05-10T12:28:12;2.80;;;1.60;;
43042;SDS011;28667;50.758;6.096;2023-05-10T12:30:38;2.03;;;1.25;;
43042;SDS011;28667;50.758;6.096;2023-05-10T12:33:11;1.40;;;1.05;;
43042;SDS011;28667;50.758;6.096;2023-05-10T12:35:48;1.35;;;1.25;;
43042;SDS011;28667;50.758;6.096;2023-05-10T12:40:58;2.03;;;1.75;;
43042;SDS011;28667;50.758;6.096;2023-05-10T12:43:25;3.30;;;1.77;;
43042;SDS011;28667;50.758;6.096;2023-05-10T12:45:51;2.20;;;1.75;;
43042;SDS011;28667;50.758;6.096;2023-05-10T12:48:17;2.60;;;1.95;;
43042;SDS011;28667;50.758;6.096;2023-05-10T12:50:42;3.08;;;2.28;;
43042;SDS011;28667;50.758;6.096;2023-05-10T12:53:08;2.10;;;1.67;;
43042;SDS011;28667;50.758;6.096;2023-05-10T12:55:34;3.85;;;1.98;;
43042;SDS011;28667;50.758;6.096;2023-05-10T12:57:59;2.22;;;2.00;;
43042;SDS011;28667;50.758;6.096;2023-05-10T13:00:25;4.40;;;2.35;;
43042;SDS011;28667;50.758;6.096;2023-05-10T13:02:51;4.10;;;3.03;;
43042;SDS011;28667;50.758;6.096;2023-05-10T13:05:18;3.22;;;2.50;;
43042;SDS011;28667;50.758;6.096;2023-05-10T13:07:43;4.65;;;1.90;;
43042;SDS011;28667;50.758;6.096;2023-05-10T13:10:09;3.13;;;2.20;;
43042;SDS011;28667;50.758;6.096;2023-05-10T13:12:36;2.67;;;1.92;;
43042;SDS011;28667;50.758;6.096;2023-05-10T13:15:02;4.78;;;1.75;;
43042;SDS011;28667;50.758;6.096;2023-05-10T13:17:28;3.22;;;2.05;;
43042;SDS011;28667;50.758;6.096;2023-05-10T13:19:54;3.60;;;1.98;;
43042;SDS011;28667;50.758;6.096;2023-05-10T13:22:20;3.58;;;2.30;;
43042;SDS011;28667;50.758;6.096;2023-05-10T13:24:46;4.05;;;2.28;;
43042;SDS011;28667;50.758;6.096;2023-05-10T13:27:12;2.35;;;1.77;;
43042;SDS011;28667;50.758;6.096;2023-05-10T13:29:38;3.08;;;1.98;;
43042;SDS011;28667;50.758;6.096;2023-05-10T13:32:03;1.98;;;1.50;;
43042;SDS011;28667;50.758;6.096;2023-05-10T13:34:29;5.13;;;2.13;;
43042;SDS011;28667;50.758;6.096;2023-05-10T13:36:55;2.65;;;2.35;;
43042;SDS011;28667;50.758;6.096;2023-05-10T13:39:21;3.58;;;1.45;;
43042;SDS011;28667;50.758;6.096;2023-05-10T13:41:47;2.10;;;1.40;;
43042;SDS011;28667;50.758;6.096;2023-05-10T13:44:13;3.05;;;1.63;;
43042;SDS011;28667;50.758;6.096;2023-05-10T13:46:42;1.23;;;1.08;;
43042;SDS011;28667;50.758;6.096;2023-05-10T13:49:09;1.17;;;0.90;;
43042;SDS011;28667;50.758;6.096;2023-05-10T13:51:35;1.88;;;1.48;;
43042;SDS011;28667;50.758;6.096;2023-05-10T13:54:01;1.38;;;0.95;;
43042;SDS011;28667;50.758;6.096;2023-05-10T13:56:27;1.27;;;0.90;;
43042;SDS011;28667;50.758;6.096;2023-05-10T13:58:53;1.90;;;1.40;;
43042;SDS011;28667;50.758;6.096;2023-05-10T14:01:19;2.72;;;1.33;;
43042;SDS011;28667;50.758;6.096;2023-05-10T14:03:45;1.73;;;1.45;;
43042;SDS011;28667;50.758;6.096;2023-05-10T14:06:11;1.00;;;0.95;;
43042;SDS011;28667;50.758;6.096;2023-05-10T14:08:36;1.42;;;1.25;;
43042;SDS011;28667;50.758;6.096;2023-05-10T14:11:02;1.52;;;1.15;;
43042;SDS011;28667;50.758;6.096;2023-05-10T14:13:28;1.25;;;1.15;;
43042;SDS011;28667;50.758;6.096;2023-05-10T14:15:54;1.40;;;1.30;;
43042;SDS011;28667;50.758;6.096;2023-05-10T14:18:20;2.20;;;0.93;;
43042;SDS011;28667;50.758;6.096;2023-05-10T14:20:46;3.00;;;1.20;;
43042;SDS011;28667;50.758;6.096;2023-05-10T14:23:12;1.58;;;1.35;;
43042;SDS011;28667;50.758;6.096;2023-05-10T14:25:39;2.13;;;1.42;;
43042;SDS011;28667;50.758;6.096;2023-05-10T14:28:05;1.52;;;1.13;;
43042;SDS011;28667;50.758;6.096;2023-05-10T14:30:31;1.30;;;1.13;;
43042;SDS011;28667;50.758;6.096;2023-05-10T14:33:01;1.98;;;1.10;;
43042;SDS011;28667;50.758;6.096;2023-05-10T14:35:28;1.70;;;1.30;;
43042;SDS011;28667;50.758;6.096;2023-05-10T14:37:56;2.15;;;1.35;;
43042;SDS011;28667;50.758;6.096;2023-05-10T14:40:21;1.77;;;1.48;;
43042;SDS011;28667;50.758;6.096;2023-05-10T14:42:47;3.08;;;1.65;;
43042;SDS011;28667;50.758;6.096;2023-05-10T14:45:13;3.78;;;1.58;;
43042;SDS011;28667;50.758;6.096;2023-05-10T14:47:39;2.55;;;1.60;;
43042;SDS011;28667;50.758;6.096;2023-05-10T14:50:05;2.60;;;1.77;;
43042;SDS011;28667;50.758;6.096;2023-05-10T14:52:31;2.08;;;1.58;;
43042;SDS011;28667;50.758;6.096;2023-05-10T14:54:57;1.65;;;1.52;;
43042;SDS011;28667;50.758;6.096;2023-05-10T14:57:24;4.07;;;1.77;;
43042;SDS011;28667;50.758;6.096;2023-05-10T14:59:49;2.25;;;1.60;;
43042;SDS011;28667;50.758;6.096;2023-05-10T15:02:15;1.70;;;1.30;;
43042;SDS011;28667;50.758;6.096;2023-05-10T15:04:41;1.98;;;1.58;;
43042;SDS011;28667;50.758;6.096;2023-05-10T15:07:07;1.75;;;1.55;;
43042;SDS011;28667;50.758;6.096;2023-05-10T15:09:33;2.40;;;1.50;;
43042;SDS011;28667;50.758;6.096;2023-05-10T15:11:58;1.90;;;1.40;;
43042;SDS011;28667;50.758;6.096;2023-05-10T15:14:24;2.85;;;1.52;;
43042;SDS011;28667;50.758;6.096;2023-05-10T15:16:50;2.80;;;1.33;;
43042;SDS011;28667;50.758;6.096;2023-05-10T15:19:16;1.88;;;1.30;;